Cabo Peñas, Asturias

latitud = 43° 39' 20''N | longitud = 005° 50' 57''W
100 metros sobre el nivel del mar | datos mensuales

Fecha, hora, temperatura, viento dirección y velocidad, humedad y presión.

  • 21-01-2018 02:00:00 | 13.90°C | Oeste |28.00 km/h | 86.00% | 0.00 hPa
  • 21-01-2018 01:00:00 | 13.70°C | Oeste |25.00 km/h | 86.00% | 0.00 hPa
  • 21-01-2018 00:00:00 | 13.70°C | Oeste |23.00 km/h | 87.00% | 0.00 hPa
  • 20-01-2018 23:00:00 | 13.60°C | Oeste |22.00 km/h | 87.00% | 0.00 hPa
  • 20-01-2018 22:00:00 | 13.90°C | Oeste |27.00 km/h | 86.00% | 0.00 hPa
  • 20-01-2018 21:00:00 | 13.70°C | Oeste |22.00 km/h | 87.00% | 0.00 hPa
  • 20-01-2018 20:00:00 | 13.60°C | Oeste |21.00 km/h | 87.00% | 0.00 hPa
  • 20-01-2018 19:00:00 | 14.00°C | Oeste |23.00 km/h | 86.00% | 0.00 hPa
  • 20-01-2018 18:00:00 | 14.40°C | Oeste |27.00 km/h | 82.00% | 0.00 hPa
  • 20-01-2018 17:00:00 | 14.80°C | Oeste |28.00 km/h | 76.00% | 0.00 hPa
  • 20-01-2018 16:00:00 | 15.00°C | Oeste |26.00 km/h | 76.00% | 0.00 hPa
  • 20-01-2018 15:00:00 | 15.50°C | Oeste |30.00 km/h | 73.00% | 0.00 hPa
  • 20-01-2018 14:00:00 | 15.40°C | Oeste |31.00 km/h | 73.00% | 0.00 hPa
  • 20-01-2018 13:00:00 | 15.20°C | Oeste |34.00 km/h | 75.00% | 0.00 hPa
  • 20-01-2018 12:00:00 | 14.30°C | Sudoeste |23.00 km/h | 76.00% | 0.00 hPa
  • 20-01-2018 11:00:00 | 13.60°C | Sudoeste |27.00 km/h | 76.00% | 0.00 hPa
  • 20-01-2018 10:00:00 | 13.30°C | Oeste |28.00 km/h | 79.00% | 0.00 hPa
  • 20-01-2018 09:00:00 | 13.20°C | Oeste |33.00 km/h | 76.00% | 0.00 hPa
  • 20-01-2018 08:00:00 | 12.30°C | Oeste |30.00 km/h | 76.00% | 0.00 hPa
  • 20-01-2018 07:00:00 | 12.10°C | Oeste |29.00 km/h | 76.00% | 0.00 hPa
  • 20-01-2018 06:00:00 | 11.60°C | Noroeste |18.00 km/h | 83.00% | 0.00 hPa
  • 20-01-2018 05:00:00 | 11.30°C | Oeste |17.00 km/h | 83.00% | 0.00 hPa
  • 20-01-2018 04:00:00 | 10.90°C | Oeste |17.00 km/h | 76.00% | 0.00 hPa
  • 20-01-2018 03:00:00 | 10.10°C | Sudoeste |15.00 km/h | 76.00% | 0.00 hPa